• Join FlightAware (Why Join?)
  • Login
  • US Flag 
11:58PM EDT


 

Airport Tracker/Info


-or-


 

Live Flight TrackerFlight Track Log ✈ UPS661 ✈ 27-Jul-2012 ✈ KMCI - KSDF

Flight Track Log - Related Links

Times and Time Zones

All times are in EDT time to prevent confusion due to time zone crossing. See the UPS661 flight status page for this flight to view local times or setup timezone preferences in your user account.

Time Position Orientation Groundspeed Altitude Reporting Facility
EDT Latitude Longitude Course Direction KTS MPH feet Rate Location/Type
11:01PM 39.3167 -94.7167 360° North 158 182 2,100  Level Kansas City TRACON
11:01PM 39.3333 -94.7167 64° Northeast 167 192 2,800 1,740 Climbing Kansas City TRACON
11:02PM 39.3558 -94.6564 84° East 249 287 4,300 3,240 Climbing Kansas City Center
11:03PM 39.3642 -94.5489 125° Southeast 269 310 8,900 3,720 Climbing Kansas City Center
11:04PM 39.3122 -94.4522 134° Southeast 287 330 11,800 2,520 Climbing Kansas City Center
11:05PM 39.2392 -94.3533 129° Southeast 368 423 14,000 2,700 Climbing Kansas City Center
11:06PM 39.1575 -94.2250 115° Southeast 441 507 17,200 3,240 Climbing Kansas City Center
11:07PM 39.0944 -94.0539 96° East 472 543 20,500 2,700 Climbing Kansas City Center
11:09PM 39.0678 -93.7067 95° East 511 588 25,400 2,700 Climbing Kansas City Center
11:10PM 39.0539 -93.5197 95° East 532 612 28,700 3,300 Climbing Kansas City Center
11:11PM 39.0394 -93.3061 94° East 537 618 32,100 2,820 Climbing Kansas City Center
11:12PM 39.0292 -93.1297 96° East 531 611 34,400 1,440 Climbing Kansas City Center
11:13PM 39.0142 -92.9403 101° East 523 602 35,000 300 Climbing Kansas City Center
11:14PM 38.9867 -92.7647 113° Southeast 518 596 35,000  Level Kansas City Center
11:15PM 38.9300 -92.5925 108° East 506 582 35,000  Level Kansas City Center
11:16PM 38.8831 -92.4097 97° East 524 603 35,000  Level Kansas City Center
11:17PM 38.8650 -92.2211 96° East 529 609 35,000  Level Kansas City Center
11:18PM 38.8508 -92.0350 96° East 529 609 35,000  Level Kansas City Center
11:19PM 38.8344 -91.8514 97° East 529 609 35,000  Level Kansas City Center
11:20PM 38.8156 -91.6656 97° East 523 602 35,000  Level Kansas City Center
11:21PM 38.7986 -91.4797 97° East 517 595 35,000  Level Kansas City Center
11:22PM 38.7814 -91.2967 96° East 524 603 35,000  Level Kansas City Center
11:23PM 38.7658 -91.1111 99° East 524 603 35,000  Level Kansas City Center
11:24PM 38.7464 -90.9469 97° East 519 597 35,000  Level Kansas City Center
11:25PM 38.7278 -90.7456 98° East 514 592 35,000  Level Kansas City Center
11:26PM 38.7100 -90.5814 97° East 519 597 35,000  Level Kansas City Center
11:27PM 38.6906 -90.3803 97° East 519 597 35,000  Level Kansas City Center
11:28PM 38.6742 -90.2136 97° East 519 597 35,000  Level Kansas City Center
11:29PM 38.6544 -90.0156 98° East 519 597 35,100  Climbing Kansas City Center
11:30PM 38.6325 -89.8228 96° East 529 609 35,000 -60 Descending Kansas City Center
11:31PM 38.6175 -89.6536 99° East 540 621 35,000  Level Kansas City Center
11:32PM 38.5925 -89.4561 99° East 522 601 35,000  Level Kansas City Center
11:33PM 38.5728 -89.2900 98° East 517 595 35,000  Level Kansas City Center
11:35PM 38.5261 -88.8642 98° East 524 603 35,000  Level Indianapolis Center
11:36PM 38.5053 -88.6742 99° East 524 603 35,000  Level Indianapolis Center
11:37PM 38.4819 -88.4894 98° East 524 603 35,000  Level Indianapolis Center
11:38PM 38.4606 -88.2994 99° East 524 603 35,000  Level Indianapolis Center
11:39PM 38.4367 -88.1097 99° East 530 610 35,000 -1,020 Level Indianapolis Center
11:40PM 38.4128 -87.9172 99° East 535 616 33,000 -2,700 Descending Indianapolis Center
11:41PM 38.3903 -87.7331 100° East 535 616 29,700 -3,480 Descending Indianapolis Center
11:42PM 38.3653 -87.5464 99° East 535 616 26,100 -3,240 Descending Indianapolis Center
11:43PM 38.3422 -87.3650 99° East 535 616 23,300 -2,820 Descending Indianapolis Center
11:44PM 38.3206 -87.1889 101° East 520 598 20,500 -2,700 Descending Indianapolis Center
11:45PM 38.2964 -87.0264 98° East 512 589 18,000 -2,640 Descending Indianapolis Center
11:46PM 38.2781 -86.8642 100° East 491 565 15,300 -2,700 Descending Indianapolis Center
11:47PM 38.2572 -86.7097 99° East 464 534 12,600 -2,100 Descending Indianapolis Center
11:48PM 38.2383 -86.5581 100° East 447 514 11,200 -1,020 Descending Indianapolis Center
11:49PM 38.2206 -86.4278 101° East 407 468 10,600 -780 Descending Indianapolis Center
11:50PM 38.2097 -86.3578 100° East 330 380 10,100 -1,260 Descending FAA TRACON SMA TRACON (SMA)
11:50PM 38.2047 -86.3228 100° East 328 377 9,600 -1,440 Descending FAA TRACON SMA TRACON (SMA)
11:50PM 38.1997 -86.2878 98° East 328 377 9,200 -1,500 Descending FAA TRACON SMA TRACON (SMA)
11:51PM 38.1947 -86.2447 98° East 323 372 8,600 -1,500 Descending FAA TRACON SMA TRACON (SMA)
11:51PM 38.1908 -86.2103 83° East 321 369 8,200 -1,500 Descending FAA TRACON SMA TRACON (SMA)
11:51PM 38.1942 -86.1761 80° East 319 367 7,500 -1,800 Descending FAA TRACON SMA TRACON (SMA)
11:52PM 38.2000 -86.1353 79° East 309 356 6,900 -1,500 Descending FAA TRACON SMA TRACON (SMA)
11:52PM 38.2047 -86.1036 79° East 300 345 6,600 -1,140 Descending FAA TRACON SMA TRACON (SMA)
11:52PM 38.2094 -86.0719 79° East 296 341 6,200 -900 Descending FAA TRACON SMA TRACON (SMA)
11:53PM 38.2153 -86.0342 80° East 287 330 6,000 -360 Descending FAA TRACON SMA TRACON (SMA)
11:53PM 38.2192 -86.0061 79° East 269 310 6,000  Level FAA TRACON SMA TRACON (SMA)
11:53PM 38.2231 -85.9797 82° East 251 289 6,000  Level FAA TRACON SMA TRACON (SMA)
11:54PM 38.2261 -85.9536 78° East 243 280 6,000  Level FAA TRACON SMA TRACON (SMA)
11:54PM 38.2317 -85.9208 48° Northeast 247 284 6,000  Level FAA TRACON SMA TRACON (SMA)
11:54PM 38.2453 -85.9017 North 251 289 6,000 -480 Level FAA TRACON SMA TRACON (SMA)
11:55PM 38.2697 -85.8981 344° North 246 283 5,700 -900 Descending FAA TRACON SMA TRACON (SMA)
11:55PM 38.2881 -85.9047 345° North 228 262 5,400 -1,080 Descending FAA TRACON SMA TRACON (SMA)
11:55PM 38.3064 -85.9111 341° North 220 253 5,000 -1,380 Descending FAA TRACON SMA TRACON (SMA)
11:56PM 38.3286 -85.9208 342° North 218 251 4,500 -1,200 Descending FAA TRACON SMA TRACON (SMA)
11:56PM 38.3464 -85.9281 343° North 218 251 4,200 -960 Descending FAA TRACON SMA TRACON (SMA)
11:56PM 38.3639 -85.9350 355° North 215 247 3,900 -1,380 Descending FAA TRACON SMA TRACON (SMA)
11:57PM 38.3858 -85.9375 44° Northeast 216 249 3,300 -1,380 Descending FAA TRACON SMA TRACON (SMA)
11:57PM 38.3986 -85.9217 78° East 224 258 3,000 -480 Descending FAA TRACON SMA TRACON (SMA)
11:57PM 38.4025 -85.8978 82° East 227 261 3,000  Level FAA TRACON SMA TRACON (SMA)
11:58PM 38.4053 -85.8739 106° East 221 254 3,000  Level FAA TRACON SMA TRACON (SMA)
11:58PM 38.3992 -85.8461 147° Southeast 229 264 3,000  Level FAA TRACON SMA TRACON (SMA)
11:58PM 38.3844 -85.8339 153° Southeast 219 252 3,000  Level FAA TRACON SMA TRACON (SMA)
11:59PM 38.3258 -85.7958 163° South 207 238 3,000 -120 Level FAA TRACON SMA TRACON (SMA)
12:00AM 38.3089 -85.7892 166° South 208 239 2,900 -780 Descending FAA TRACON SMA TRACON (SMA)
12:00AM 38.2869 -85.7819 166° South 211 243 2,500 -1,080 Descending FAA TRACON SMA TRACON (SMA)
12:01AM 38.2622 -85.7739 165° South 201 231 2,000 -960 Descending FAA TRACON SMA TRACON (SMA)
12:01AM 38.2439 -85.7675 166° South 180 207 1,700 -900 Descending FAA TRACON SMA TRACON (SMA)
12:01AM 38.2297 -85.7631 166° South 172 198 1,400 -960 Descending FAA TRACON SMA TRACON (SMA)
12:02AM 38.2161 -85.7586 166° South 161 185 1,100 -900 Descending FAA TRACON SMA TRACON (SMA)
12:02AM 38.2008 -85.7536 166° South 149 171 800 -780 Descending FAA TRACON SMA TRACON (SMA)
12:02AM 38.1889 -85.7497 166° South 146 168 600 -660 Descending FAA TRACON SMA TRACON (SMA)